Cincinnati, Ohio
Traffic Map
Current Weather Conditions
Cincinnati, Ohio
Clear
Clear
-3°
Feels Like: -3°
Wind Chill: -3° Ceiling: Unl
Heat Index: -3° Visibility: 10mi
Dew Point: -7° Wind: 0mph
Humidity: 75% Direction: ° ()
Pressure: 30.39in Gusts: 0mph
Raw Report DataKLUK 290353Z AUTO 00000KT 10SM CLR M03/M07 A3039 RMK AO2 SLP295 T10331072
Traffic Incident Summary
Active as of:
Severity:
Category:
InformationThere was an issue retrieving the traffic information for this location. Please try a different location or try again shortly.
Advertisements
Track Severe Weather on mobile